Austin, Colorado
Current Conditions -  °F | °C
As of 7:35 AM on Friday 31 Oct 2014 (Local Time) from KAJZ Reporting Station
Clear Clear  
Wind Chill:   Ceiling: Unl
Heat Index:   Visibility: 10mi
Dew Point: -4°   Wind: 0mph
Humidity: 65%   Direction: NA
Pressure: 30.25"   Gusts: NA
Location:  38.78°N, 107.95°W
Report Text: KAJZ 311335Z AUTO 00000KT 10SM CLR 02/M04 A3025 RMK AO2 T00151044
Loading
Personal Weather Stations






























Interactive Weather Map
Tropical Storm Tracking
New forecast layout! Learn more

10-Day Weather Forecast

Advertisements
Track Severe Weather on mobile